Time;durP1;ratioP1;P1;durP2;ratioP2;P2;SDS_P1;SDS_P2;PMS_P1;PMS_P2;Temp;Humidity;BMP_temperature;BMP_pressure;BME280_temperature;BME280_humidity;BME280_pressure;Samples;Min_cycle;Max_cycle;Signal;HPM_P1;HPM_P2
2021/09/14 00:01:46;;;;;;;5.88;0.47;;;;;;;16.66;100.00;99842.22;4995147;28;20462;-57
2021/09/14 00:04:51;;;;;;;2.45;0.30;;;;;;;16.60;100.00;99838.69;4995960;28;20480;-57
2021/09/14 00:07:54;;;;;;;2.22;0.40;;;;;;;16.52;100.00;99832.03;4995957;28;20049;-57
2021/09/14 00:10:58;;;;;;;1.65;0.43;;;;;;;16.53;100.00;99830.78;4995692;28;20065;-56
2021/09/14 00:14:04;;;;;;;1.38;0.43;;;;;;;16.59;100.00;99837.13;4995966;28;20407;-57
2021/09/14 00:17:07;;;;;;;4.72;0.30;;;;;;;16.56;100.00;99835.38;4995747;28;20570;-57
2021/09/14 00:20:11;;;;;;;5.15;0.60;;;;;;;16.59;100.00;99827.94;4995428;28;20046;-57
2021/09/14 00:23:14;;;;;;;1.58;0.20;;;;;;;16.57;100.00;99827.69;4995491;28;20053;-57
2021/09/14 00:26:26;;;;;;;1.45;0.50;;;;;;;16.55;100.00;99822.59;4995540;28;20050;-57
2021/09/14 00:29:40;;;;;;;1.40;0.50;;;;;;;16.64;100.00;99822.31;4995007;28;20454;-57
2021/09/14 00:32:49;;;;;;;1.08;0.57;;;;;;;16.63;100.00;99817.19;5005065;28;20049;-58
2021/09/14 00:36:06;;;;;;;3.30;0.90;;;;;;;16.53;100.00;99811.09;4995195;28;20479;-58
2021/09/14 00:39:15;;;;;;;0.63;0.40;;;;;;;16.31;100.00;99816.00;5005898;28;20045;-57
2021/09/14 00:42:19;;;;;;;1.67;0.55;;;;;;;16.44;100.00;99808.53;4995422;28;20045;-57
2021/09/14 00:45:23;;;;;;;1.95;0.38;;;;;;;16.43;100.00;99807.03;4995214;28;20041;-57
2021/09/14 00:48:37;;;;;;;3.00;0.63;;;;;;;16.45;100.00;99798.06;4995236;28;20101;-56
2021/09/14 00:51:55;;;;;;;5.47;0.45;;;;;;;16.45;100.00;99795.25;4994579;28;20113;-57
2021/09/14 00:55:11;;;;;;;1.60;0.40;;;;;;;16.46;100.00;99794.72;4994215;28;20458;-57
2021/09/14 00:58:14;;;;;;;1.42;0.70;;;;;;;16.39;100.00;99794.53;4994908;28;20045;-57
2021/09/14 01:01:17;;;;;;;3.50;1.02;;;;;;;16.40;100.00;99796.81;4994685;28;20045;-57
2021/09/14 01:04:21;;;;;;;4.32;1.27;;;;;;;16.44;100.00;99794.50;4961702;28;20445;-57
2021/09/14 01:07:23;;;;;;;3.20;0.40;;;;;;;16.45;100.00;99796.03;4960627;28;20080;-57
2021/09/14 01:10:28;;;;;;;2.38;1.15;;;;;;;16.45;100.00;99793.22;4961277;28;20037;-57
2021/09/14 01:13:31;;;;;;;0.85;0.63;;;;;;;16.38;100.00;99787.34;4961517;28;20101;-56
2021/09/14 01:16:37;;;;;;;2.83;0.43;;;;;;;16.38;100.00;99793.75;4962442;28;21128;-57
2021/09/14 01:19:40;;;;;;;1.55;0.40;;;;;;;16.36;100.00;99792.75;4962711;28;20064;-57
2021/09/14 01:22:52;;;;;;;3.45;1.50;;;;;;;16.27;100.00;99788.16;4964770;28;20550;-57
2021/09/14 01:26:28;;;;;;;11.35;0.77;;;;;;;16.14;100.00;99792.81;4978146;28;20064;-56
2021/09/14 01:34:30;;;;;;;1.42;0.57;;;;;;;16.09;100.00;99788.00;4942780;28;20138;-56
2021/09/14 01:42:03;;;;;;;3.65;0.30;;;;;;;16.14;100.00;99773.91;4927308;28;20038;-55
2021/09/14 01:45:13;;;;;;;0.52;0.10;;;;;;;16.18;100.00;99768.78;4943923;28;20153;-56
2021/09/14 01:48:17;;;;;;;1.00;0.40;;;;;;;16.11;100.00;99769.34;4944128;28;20074;-55
2021/09/14 01:51:20;;;;;;;15.15;1.70;;;;;;;16.03;100.00;99767.53;4922560;29;20241;-55
2021/09/14 01:54:23;;;;;;;0.15;0.10;;;;;;;16.00;100.00;99772.19;4922550;29;21178;-55
2021/09/14 01:57:32;;;;;;;0.93;0.40;;;;;;;16.07;100.00;99771.63;4922497;29;20089;-55
2021/09/14 02:00:36;;;;;;;1.02;0.43;;;;;;;16.06;100.00;99775.72;4922269;29;20038;-55
2021/09/14 02:04:04;;;;;;;0.70;0.20;;;;;;;16.03;100.00;99765.50;4922897;29;20102;-55
2021/09/14 03:00:09;;;;;;;3.90;1.30;;;;;;;14.42;100.00;99737.41;4935348;28;20739;-54
2021/09/14 03:03:19;;;;;;;2.10;0.60;;;;;;;14.48;100.00;99742.28;4949277;28;20038;-55
2021/09/14 03:06:33;;;;;;;1.30;0.65;;;;;;;14.52;100.00;99751.97;4947234;28;20783;-55
2021/09/14 03:09:40;;;;;;;1.60;0.70;;;;;;;14.11;100.00;99733.97;4947292;28;20042;-55
2021/09/14 03:12:53;;;;;;;1.77;0.75;;;;;;;14.18;100.00;99739.09;4947349;28;20081;-54
2021/09/14 03:15:59;;;;;;;8.00;0.90;;;;;;;14.26;100.00;99729.69;4947087;28;20090;-55
2021/09/14 03:19:17;;;;;;;1.95;1.00;;;;;;;14.31;100.00;99731.75;4947585;28;20142;-55
2021/09/14 03:22:28;;;;;;;3.72;1.17;;;;;;;14.28;100.00;99732.75;4946889;28;20720;-55
2021/09/14 03:25:37;;;;;;;0.73;0.25;;;;;;;14.30;100.00;99723.88;4947637;28;20044;-55
2021/09/14 03:29:16;;;;;;;0.35;0.25;;;;;;;14.31;100.00;99722.63;4953356;28;20107;-54
2021/09/14 03:32:43;;;;;;;3.08;0.65;;;;;;;14.38;100.00;99716.50;4953153;28;20782;-54
2021/09/14 03:36:26;;;;;;;2.85;0.80;;;;;;;15.48;100.00;99706.69;4951770;28;20033;-54
2021/09/14 03:39:38;;;;;;;2.15;0.50;;;;;;;14.77;100.00;99706.16;4972639;28;20603;-55
2021/09/14 03:42:49;;;;;;;1.45;0.75;;;;;;;14.60;100.00;99716.56;4950526;28;20579;-55
2021/09/14 03:51:17;;;;;;;;;;;;;;;;;;;;;
2021/09/14 03:55:32;;;;;;;;;;;;;;;;;;;;;
2021/09/14 03:59:04;;;;;;;3.05;0.80;;;;;;;14.28;100.00;99709.56;4960498;28;20503;-54
2021/09/14 04:02:31;;;;;;;4.97;0.82;;;;;;;14.41;100.00;99712.69;4974219;28;20141;-54
2021/09/14 04:09:39;;;;;;;0.90;0.57;;;;;;;16.27;100.00;99675.00;4949031;28;20115;-54
2021/09/14 04:17:55;;;;;;;0.95;0.75;;;;;;;16.52;100.00;99668.25;4960259;28;20049;-54
2021/09/14 04:21:12;;;;;;;4.35;1.08;;;;;;;16.48;100.00;99674.09;4964450;28;20038;-54
2021/09/14 04:25:59;;;;;;;3.25;0.90;;;;;;;15.51;100.00;99683.97;4950869;28;20627;-54
2021/09/14 04:28:35;;;;;;;1.20;0.47;;;;;;;15.47;100.00;99691.88;4947078;28;20173;-54
2021/09/14 04:31:38;;;;;;;10.27;1.08;;;;;;;15.66;100.00;99692.84;4959487;28;20049;-54
2021/09/14 04:34:41;;;;;;;3.10;0.80;;;;;;;15.63;100.00;99690.31;4985555;28;20041;-54
2021/09/14 04:37:44;;;;;;;3.47;1.17;;;;;;;15.31;100.00;99700.31;4982511;28;20667;-54
2021/09/14 04:40:47;;;;;;;9.70;0.82;;;;;;;15.68;100.00;99695.16;4990011;28;20729;-54
2021/09/14 04:43:50;;;;;;;2.55;1.23;;;;;;;15.68;100.00;99695.16;4989256;28;20037;-54
2021/09/14 04:46:59;;;;;;;0.73;0.47;;;;;;;15.73;100.00;99678.28;4989841;28;20093;-54
2021/09/14 04:50:02;;;;;;;2.47;0.90;;;;;;;15.79;100.00;99683.88;4984834;28;20037;-48
2021/09/14 04:53:05;;;;;;;2.80;0.63;;;;;;;15.80;100.00;99689.00;4983619;28;20153;-48
2021/09/14 04:58:59;;;;;;;2.28;0.73;;;;;;;15.84;100.00;99678.25;5041393;22;20381;-48
2021/09/14 05:02:03;;;;;;;8.48;0.95;;;;;;;15.95;100.00;99671.84;5033222;28;20044;-49
2021/09/14 05:05:06;;;;;;;2.20;0.60;;;;;;;15.95;100.00;99677.44;5034230;28;20040;-49
2021/09/14 05:08:10;;;;;;;0.50;0.45;;;;;;;16.01;100.00;99663.38;5052223;28;20062;-48
2021/09/14 05:11:13;;;;;;;2.97;0.52;;;;;;;15.99;100.00;99666.69;5050969;28;20059;-49
2021/09/14 05:14:16;;;;;;;2.65;0.55;;;;;;;15.95;100.00;99666.22;5021781;28;20032;-49
2021/09/14 05:17:19;;;;;;;0.85;0.70;;;;;;;15.81;100.00;99664.47;5010517;28;20864;-49
2021/09/14 05:20:23;;;;;;;1.98;0.50;;;;;;;15.84;100.00;99666.25;5002741;28;20901;-49
2021/09/14 05:23:35;;;;;;;3.88;0.95;;;;;;;15.79;100.00;99669.84;5002286;28;20068;-49
2021/09/14 05:26:40;;;;;;;2.45;0.38;;;;;;;15.98;100.00;99665.19;5001900;28;20075;-49
2021/09/14 05:29:43;;;;;;;4.88;1.27;;;;;;;16.02;100.00;99664.91;5001744;28;20031;-49
2021/09/14 05:32:46;;;;;;;9.35;1.83;;;;;;;16.16;100.00;99658.97;5002037;28;20107;-49
2021/09/14 05:35:53;;;;;;;8.10;1.48;;;;;;;16.17;100.00;99657.69;5003286;28;20040;-49
2021/09/14 05:38:57;;;;;;;4.47;1.02;;;;;;;16.19;100.00;99660.75;5002843;28;20124;-49
2021/09/14 05:42:00;;;;;;;12.18;2.03;;;;;;;16.16;100.00;99656.16;5003136;28;20758;-49
2021/09/14 05:45:03;;;;;;;0.77;0.47;;;;;;;15.98;100.00;99665.19;5003300;28;20094;-49
2021/09/14 05:48:06;;;;;;;2.00;0.38;;;;;;;16.14;100.00;99667.16;5004755;28;20904;-49
2021/09/14 05:51:09;;;;;;;2.75;0.98;;;;;;;16.12;100.00;99668.94;4996918;28;20048;-49
2021/09/14 05:54:12;;;;;;;2.15;0.82;;;;;;;16.16;100.00;99670.19;4999907;28;20430;-49
2021/09/14 05:57:16;;;;;;;0.80;0.30;;;;;;;16.25;100.00;99678.31;5003634;28;20127;-49
2021/09/14 06:00:22;;;;;;;1.38;0.88;;;;;;;16.28;100.00;99660.44;5001582;28;20129;-49
2021/09/14 06:03:28;;;;;;;2.25;1.55;;;;;;;16.28;100.00;99665.28;5003349;28;20094;-49
2021/09/14 06:06:31;;;;;;;6.38;1.63;;;;;;;16.36;100.00;99667.03;5002993;28;20217;-49
2021/09/14 06:09:34;;;;;;;2.05;0.50;;;;;;;16.45;100.00;99666.72;5003258;28;20099;-49
2021/09/14 06:12:37;;;;;;;4.45;1.33;;;;;;;16.40;100.00;99672.38;5003470;28;20324;-49
2021/09/14 06:15:41;;;;;;;4.43;1.45;;;;;;;16.49;100.00;99675.63;5005764;28;20739;-49
2021/09/14 06:18:45;;;;;;;1.13;0.90;;;;;;;16.58;100.00;99683.78;5001198;28;20098;-53
2021/09/14 06:21:48;;;;;;;3.80;1.45;;;;;;;16.56;100.00;99686.38;5005986;28;20102;-54
2021/09/14 06:24:51;;;;;;;4.40;1.15;;;;;;;16.64;100.00;99687.31;5007138;28;20248;-54
2021/09/14 06:32:21;;;;;;;2.47;1.05;;;;;;;16.60;100.00;99692.47;4998283;28;20052;-53
2021/09/14 06:35:24;;;;;;;1.15;0.45;;;;;;;16.70;100.00;99690.09;4999860;28;20045;-54
2021/09/14 06:38:27;;;;;;;5.60;0.82;;;;;;;16.76;100.00;99684.44;4999921;28;20513;-54
2021/09/14 06:41:31;;;;;;;2.15;0.88;;;;;;;16.84;100.00;99691.03;5011551;28;20098;-54
2021/09/14 06:44:34;;;;;;;4.25;1.20;;;;;;;16.98;100.00;99685.03;5002651;28;20728;-54
2021/09/14 06:47:37;;;;;;;5.30;0.60;;;;;;;17.04;100.00;99687.81;5001795;28;20037;-54
2021/09/14 06:50:40;;;;;;;4.32;0.88;;;;;;;17.02;100.00;99687.56;5000979;28;20052;-54
2021/09/14 06:53:43;;;;;;;2.15;0.80;;;;;;;17.18;100.00;99684.59;5001977;28;20095;-54
2021/09/14 06:56:46;;;;;;;10.10;1.20;;;;;;;17.26;100.00;99684.81;5003157;28;20072;-54
2021/09/14 06:59:49;;;;;;;1.80;0.45;;;;;;;17.37;100.00;99693.13;5003606;28;20052;-54
2021/09/14 07:02:52;;;;;;;4.47;1.55;;;;;;;17.31;100.00;99693.19;5001150;28;20068;-54
2021/09/14 07:05:55;;;;;;;1.98;0.70;;;;;;;17.39;100.00;99694.13;5002416;28;20556;-54
2021/09/14 07:08:58;;;;;;;2.60;0.93;;;;;;;17.38;100.00;99692.63;5008914;28;20052;-54
2021/09/14 07:12:02;;;;;;;1.55;0.63;;;;;;;17.47;100.00;99690.72;5020533;28;20079;-53
2021/09/14 07:15:05;;;;;;;3.03;1.05;;;;;;;17.60;100.00;99677.56;5025959;28;20048;-54
2021/09/14 07:18:09;;;;;;;3.03;0.50;;;;;;;17.60;100.00;99680.41;5025381;28;20079;-54
2021/09/14 07:21:12;;;;;;;5.03;1.30;;;;;;;17.66;100.00;99672.63;5025386;28;20044;-53
2021/09/14 07:24:15;;;;;;;4.05;0.95;;;;;;;17.70;100.00;99669.50;5024149;28;20076;-54
2021/09/14 07:27:18;;;;;;;2.75;0.60;;;;;;;17.53;100.00;99664.06;5022275;28;20136;-55
2021/09/14 07:30:21;;;;;;;4.80;0.77;;;;;;;17.53;100.00;99669.72;5023023;28;20032;-54
2021/09/14 07:33:24;;;;;;;2.53;1.05;;;;;;;17.52;100.00;99667.44;5019556;28;20033;-54
2021/09/14 07:36:27;;;;;;;1.42;0.85;;;;;;;17.46;100.00;99661.81;5002909;28;20405;-54
2021/09/14 07:39:30;;;;;;;4.55;0.90;;;;;;;17.44;100.00;99651.09;5004462;28;20032;-54
2021/09/14 07:42:33;;;;;;;2.55;1.05;;;;;;;17.50;100.00;99648.22;5003517;28;20689;-54
2021/09/14 07:45:36;;;;;;;4.65;0.98;;;;;;;17.42;100.00;99647.25;5003569;28;20044;-54
2021/09/14 07:48:39;;;;;;;2.95;1.17;;;;;;;17.50;100.00;99653.84;5003665;28;20064;-55
2021/09/14 07:51:42;;;;;;;1.80;0.90;;;;;;;17.65;100.00;99651.38;5003922;28;20048;-54
2021/09/14 07:54:45;;;;;;;3.15;0.90;;;;;;;17.47;100.00;99649.28;5002572;28;20040;-54
2021/09/14 07:57:48;;;;;;;3.65;0.90;;;;;;;17.47;100.00;99649.28;5003091;28;20107;-55
2021/09/14 08:00:52;;;;;;;2.15;0.73;;;;;;;17.49;100.00;99657.19;5002709;28;20044;-54
2021/09/14 08:03:55;;;;;;;6.53;1.40;;;;;;;17.71;100.00;99640.06;5002181;28;20513;-50
2021/09/14 08:06:58;;;;;;;3.55;1.38;;;;;;;17.81;100.00;99639.19;4999890;28;20497;-50
2021/09/14 08:10:01;;;;;;;2.70;0.98;;;;;;;17.79;100.00;99629.72;4998853;28;20132;-50
2021/09/14 08:13:05;;;;;;;1.45;0.68;;;;;;;17.86;100.00;99634.78;4999075;28;20429;-50
2021/09/14 08:16:08;;;;;;;7.20;1.08;;;;;;;17.65;100.00;99631.66;4998339;28;20504;-50
2021/09/14 08:19:11;;;;;;;4.20;1.25;;;;;;;17.60;100.00;99626.88;4998282;28;20456;-49
2021/09/14 08:22:14;;;;;;;3.85;1.08;;;;;;;17.60;100.00;99623.31;4998253;28;20072;-49
2021/09/14 08:25:17;;;;;;;3.20;1.00;;;;;;;17.67;100.00;99633.97;4998569;28;20336;-50
2021/09/14 08:28:20;;;;;;;3.13;0.90;;;;;;;17.92;100.00;99624.94;4999163;28;20080;-49
2021/09/14 08:31:23;;;;;;;4.25;1.15;;;;;;;18.02;100.00;99623.28;4998454;28;20466;-50
2021/09/14 08:34:26;;;;;;;3.05;0.75;;;;;;;18.23;100.00;99622.75;4998520;28;20631;-50
2021/09/14 08:37:30;;;;;;;5.00;1.55;;;;;;;18.28;100.00;99624.75;4998206;28;20426;-50
2021/09/14 08:40:34;;;;;;;4.45;0.60;;;;;;;18.27;100.00;99612.69;4998286;28;20095;-50
2021/09/14 08:43:42;;;;;;;3.22;1.17;;;;;;;18.32;100.00;99616.72;4998373;28;21056;-50
2021/09/14 08:46:45;;;;;;;4.05;1.60;;;;;;;18.57;100.00;99612.53;4998689;28;20079;-50
2021/09/14 08:49:49;;;;;;;2.03;0.95;;;;;;;18.47;100.00;99617.03;5000436;28;20095;-50
2021/09/14 08:52:52;;;;;;;2.50;1.05;;;;;;;18.45;100.00;99614.75;5001753;28;20105;-50
2021/09/14 08:55:55;;;;;;;4.35;1.48;;;;;;;17.67;100.00;99617.81;5000319;28;20144;-50
2021/09/14 08:59:00;;;;;;;4.43;1.17;;;;;;;16.85;100.00;99627.88;5007431;28;20119;-50
2021/09/14 09:02:05;;;;;;;1.58;0.65;;;;;;;16.68;100.00;99625.16;5011335;28;20041;-50
2021/09/14 09:05:08;;;;;;;0.88;0.40;;;;;;;16.77;100.00;99621.28;5007920;28;20045;-50
2021/09/14 09:08:24;;;;;;;1.70;0.50;;;;;;;16.64;100.00;99619.84;5002093;28;20040;-50
2021/09/14 09:11:28;;;;;;;3.88;1.55;;;;;;;16.60;100.00;99635.47;4998775;28;20141;-50
2021/09/14 09:14:42;;;;;;;5.78;1.13;;;;;;;16.42;100.00;99636.84;4998453;28;20036;-50
2021/09/14 09:17:45;;;;;;;1.65;0.40;;;;;;;16.40;100.00;99639.41;4997578;28;20401;-50
2021/09/14 09:20:49;;;;;;;2.53;0.55;;;;;;;16.30;100.00;99638.19;4997595;28;20444;-50
2021/09/14 09:23:58;;;;;;;10.02;0.47;;;;;;;16.30;100.00;99643.81;4999186;28;20114;-50
2021/09/14 09:27:11;;;;;;;0.90;0.13;;;;;;;16.28;100.00;99637.97;4997227;28;20264;-50
2021/09/14 09:30:19;;;;;;;2.67;0.57;;;;;;;16.38;100.00;99636.34;4997733;28;20049;-49
2021/09/14 09:33:31;;;;;;;0.32;0.32;;;;;;;16.47;100.00;99636.03;4996527;28;20040;-50
2021/09/14 09:36:41;;;;;;;3.13;0.90;;;;;;;16.48;100.00;99634.75;4996949;28;20064;-49
2021/09/14 09:39:47;;;;;;;1.10;0.60;;;;;;;16.72;100.00;99625.66;4997914;28;20360;-50
2021/09/14 09:42:50;;;;;;;1.27;0.30;;;;;;;17.05;100.00;99630.22;4998739;28;20137;-49
2021/09/14 09:46:07;;;;;;;2.45;0.85;;;;;;;17.28;100.00;99620.31;4996721;28;20052;-49
2021/09/14 09:49:10;;;;;;;1.23;0.32;;;;;;;17.38;100.00;99625.03;4997292;28;20123;-50
2021/09/14 09:52:14;;;;;;;0.75;0.20;;;;;;;17.52;100.00;99617.47;4997105;28;20303;-50
2021/09/14 09:55:18;;;;;;;1.70;0.75;;;;;;;17.71;100.00;99620.34;4996862;28;20402;-50
2021/09/14 09:58:22;;;;;;;1.80;0.60;;;;;;;17.82;100.00;99615.31;4996661;28;20618;-50
2021/09/14 10:01:26;;;;;;;2.05;0.30;;;;;;;17.95;100.00;99614.69;4995506;28;20881;-50
2021/09/14 10:04:39;;;;;;;7.32;0.22;;;;;;;18.14;100.00;99610.56;4996138;28;20036;-50
2021/09/14 10:07:45;;;;;;;8.30;0.60;;;;;;;18.57;100.00;99606.88;4996776;28;20048;-50
2021/09/14 10:10:55;;;;;;;1.67;0.32;;;;;;;18.72;100.00;99595.88;4995822;28;20836;-50
2021/09/14 10:14:16;;;;;;;1.75;0.40;;;;;;;18.55;100.00;99615.13;4999055;28;20479;-50
2021/09/14 10:17:19;;;;;;;2.72;0.40;;;;;;;18.49;100.00;99620.84;4996449;28;20044;-49
2021/09/14 10:20:25;;;;;;;2.85;0.50;;;;;;;18.64;100.00;99626.00;4995307;28;20060;-50
2021/09/14 10:23:35;;;;;;;1.67;0.85;;;;;;;18.60;100.00;99634.03;4996106;28;20345;-50
2021/09/14 10:26:38;;;;;;;2.55;0.28;;;;;;;18.56;100.00;99639.22;4995971;28;20324;-50
2021/09/14 10:29:41;;;;;;;3.88;0.50;;;;;;;18.55;100.00;99632.81;4996993;28;20076;-49
2021/09/14 10:32:45;;;;;;;2.47;0.50;;;;;;;18.70;100.00;99632.31;5006934;28;20444;-50
2021/09/14 10:35:50;;;;;;;1.33;0.50;;;;;;;18.56;100.00;99634.31;5003919;28;20044;-50
2021/09/14 10:38:53;;;;;;;1.05;0.52;;;;;;;18.46;100.00;99623.97;4996720;28;20044;-50
2021/09/14 10:41:56;;;;;;;3.05;1.00;;;;;;;18.57;100.00;99624.56;4995946;28;20109;-49
2021/09/14 10:45:06;;;;;;;1.05;0.55;;;;;;;18.51;100.00;99620.31;4996034;28;20045;-49
2021/09/14 10:48:46;;;;;;;2.70;0.75;;;;;;;18.50;100.00;99627.25;4999061;28;20527;-50
2021/09/14 10:51:56;;;;;;;3.28;1.15;;;;;;;18.53;100.00;99623.34;4999786;28;20153;-50
2021/09/14 10:55:10;;;;;;;2.22;0.68;;;;;;;18.45;100.00;99623.19;4980559;28;20053;-50
2021/09/14 10:58:13;;;;;;;4.75;1.23;;;;;;;18.41;100.00;99619.16;4981176;28;20111;-50
2021/09/14 11:01:24;;;;;;;1.83;0.95;;;;;;;18.41;100.00;99616.34;4982142;28;20045;-49
2021/09/14 11:04:27;;;;;;;5.90;0.90;;;;;;;18.21;100.00;99602.78;4983960;28;20112;-50
2021/09/14 11:07:30;;;;;;;5.03;1.10;;;;;;;18.31;100.00;99595.47;4983401;28;20152;-50
2021/09/14 11:10:41;;;;;;;2.42;0.98;;;;;;;18.32;100.00;99608.28;4980709;28;20274;-49
2021/09/14 11:13:45;;;;;;;;;;;;;;;18.37;100.00;99599.72;4981235;28;20045;-49
2021/09/14 11:16:48;;;;;;;4.25;1.55;;;;;;;18.32;100.00;99597.00;4980406;28;20629;-49
2021/09/14 11:19:52;;;;;;;2.90;0.75;;;;;;;18.31;100.00;99596.22;4979982;28;20041;-49
2021/09/14 11:22:56;;;;;;;4.13;1.48;;;;;;;18.30;100.00;99597.50;4980127;28;20037;-49
2021/09/14 11:26:00;;;;;;;2.33;1.00;;;;;;;18.30;100.00;99594.69;4979655;28;20096;-49
2021/09/14 11:29:03;;;;;;;4.35;1.75;;;;;;;18.02;100.00;99603.53;4980124;28;20457;-49
2021/09/14 11:32:16;;;;;;;3.65;1.10;;;;;;;18.13;100.00;99597.75;4979128;28;20100;-49
2021/09/14 11:35:20;;;;;;;4.38;1.52;;;;;;;18.25;100.00;99603.25;4978570;28;20045;-49
2021/09/14 11:38:24;;;;;;;7.25;1.88;;;;;;;18.25;100.00;99606.06;4979164;28;20041;-49
2021/09/14 11:41:31;;;;;;;5.22;2.00;;;;;;;18.27;100.00;99592.97;4979404;28;20290;-49
2021/09/14 11:44:34;;;;;;;7.35;1.27;;;;;;;18.13;100.00;99589.31;4987653;28;20137;-50
2021/09/14 11:47:43;;;;;;;8.70;1.98;;;;;;;18.52;100.00;99587.97;4978012;28;20489;-51
2021/09/14 11:50:47;;;;;;;4.82;1.55;;;;;;;18.54;100.00;99583.31;4980019;28;20065;-49
2021/09/14 11:53:51;;;;;;;11.07;2.10;;;;;;;18.86;100.00;99584.06;4990210;28;20409;-49
2021/09/14 11:56:58;;;;;;;5.78;1.90;;;;;;;18.73;100.00;99588.94;4999559;28;20399;-49
2021/09/14 12:00:12;;;;;;;7.85;2.55;;;;;;;18.76;100.00;99590.66;4999131;28;20059;-49
2021/09/14 12:03:17;;;;;;;4.63;1.55;;;;;;;18.95;100.00;99585.72;5000652;28;20042;-49
2021/09/14 12:06:24;;;;;;;3.33;1.17;;;;;;;19.11;100.00;99586.72;5001063;28;20064;-49
2021/09/14 12:09:30;;;;;;;7.28;2.28;;;;;;;19.48;100.00;99583.72;4999189;28;20362;-49
2021/09/14 12:12:34;;;;;;;5.32;2.25;;;;;;;19.75;100.00;99578.81;4999269;28;20052;-49
2021/09/14 12:15:36;;;;;;;16.20;2.83;;;;;;;20.07;100.00;99579.41;4998545;28;20540;-49
2021/09/14 12:18:42;;;;;;;9.65;2.90;;;;;;;20.42;100.00;99587.38;4998830;28;20191;-49
2021/09/14 12:21:46;;;;;;;9.55;2.03;;;;;;;20.72;100.00;99576.34;5003384;28;20028;-49
2021/09/14 12:24:49;;;;;;;2.80;1.70;;;;;;;20.69;100.00;99577.44;5003333;28;21026;-49
2021/09/14 12:27:52;;;;;;;9.93;2.20;;;;;;;20.82;100.00;99577.38;5001976;28;20489;-49
2021/09/14 12:30:56;;;;;;;7.15;1.83;;;;;;;20.87;100.00;99575.72;5000073;28;20229;-49
2021/09/14 12:33:59;;;;;;;5.82;1.70;;;;;;;20.90;100.00;99574.59;5002399;28;20081;-50
2021/09/14 12:37:02;;;;;;;7.00;1.45;;;;;;;20.77;100.00;99571.84;5002987;28;20168;-50
2021/09/14 12:40:07;;;;;;;4.65;1.58;;;;;;;20.64;100.00;99563.44;5001178;28;20377;-50
2021/09/14 12:43:10;;;;;;;4.60;1.42;;;;;;;20.60;100.00;99563.00;4997426;28;20045;-50
2021/09/14 12:46:15;;;;;;;5.25;2.25;;;;;;;20.53;100.00;99569.38;4998112;28;20571;-50
2021/09/14 12:49:18;;;;;;;7.82;1.90;;;;;;;20.49;100.00;99571.78;4998505;28;20044;-49
2021/09/14 12:52:22;;;;;;;5.90;1.85;;;;;;;20.47;100.00;99560.22;4996456;28;20064;-50
2021/09/14 12:55:25;;;;;;;9.30;2.13;;;;;;;20.46;100.00;99565.16;4978892;28;20328;-50
2021/09/14 12:58:30;;;;;;;11.43;2.58;;;;;;;20.54;100.00;99554.66;4978552;28;20111;-50
2021/09/14 13:01:33;;;;;;;7.18;1.98;;;;;;;20.49;100.00;99560.47;4978852;28;20118;-50
2021/09/14 13:04:36;;;;;;;7.13;1.77;;;;;;;20.40;100.00;99556.03;4979595;28;20037;-49
2021/09/14 13:07:39;;;;;;;8.43;2.88;;;;;;;20.44;100.00;99564.94;4981741;28;20261;-49
2021/09/14 13:10:42;;;;;;;4.60;1.42;;;;;;;20.49;100.00;99566.88;4980865;28;20099;-49
2021/09/14 13:17:09;;;;;;;8.50;2.42;;;;;;;20.51;100.00;99561.41;4982997;28;20155;-50
2021/09/14 13:20:14;;;;;;;8.15;2.38;;;;;;;20.11;100.00;99574.94;4983936;28;20191;-51
2021/09/14 13:23:17;;;;;;;6.05;2.15;;;;;;;19.81;100.00;99573.81;4988795;28;20112;-49
2021/09/14 13:26:21;;;;;;;7.28;2.60;;;;;;;19.68;100.00;99571.78;4990546;28;20107;-49
2021/09/14 13:29:24;;;;;;;7.57;3.05;;;;;;;19.53;100.00;99572.31;4986687;28;20461;-50
2021/09/14 13:32:28;;;;;;;8.85;2.70;;;;;;;19.62;100.00;99563.41;4994132;28;20052;-49
2021/09/14 13:35:30;;;;;;;8.48;2.65;;;;;;;19.96;100.00;99565.50;4978286;28;20037;-49
2021/09/14 13:38:33;;;;;;;5.97;2.42;;;;;;;20.02;100.00;99560.50;4980203;28;20128;-49
2021/09/14 13:41:41;;;;;;;6.72;2.22;;;;;;;20.03;100.00;99557.09;4992582;28;20199;-49
2021/09/14 13:47:57;;;;;;;9.85;2.40;;;;;;;20.16;100.00;99554.25;5009325;28;20112;-49
2021/09/14 13:51:00;;;;;;;8.13;1.58;;;;;;;20.19;100.00;99552.38;5012426;28;20044;-49
2021/09/14 13:54:03;;;;;;;8.95;2.50;;;;;;;20.36;100.00;99549.94;5000984;28;20053;-49
2021/09/14 13:57:07;;;;;;;7.40;2.08;;;;;;;20.44;100.00;99547.97;5001761;28;20060;-49
2021/09/14 14:00:17;;;;;;;6.13;1.83;;;;;;;20.24;100.00;99549.47;4987363;28;20056;-49
2021/09/14 14:03:20;;;;;;;6.60;2.88;;;;;;;20.19;100.00;99555.22;4993343;28;20126;-56
2021/09/14 14:07:05;;;;;;;;;;;;;;;;;;;;;
2021/09/14 14:10:11;;;;;;;8.10;2.20;;;;;;;20.01;100.00;99550.50;4993533;28;20044;-49
2021/09/14 14:13:26;;;;;;;3.28;1.75;;;;;;;20.11;100.00;99552.31;4998629;28;20041;-49
2021/09/14 14:16:42;;;;;;;13.80;2.75;;;;;;;20.00;100.00;99557.47;5003769;28;20048;-49
2021/09/14 14:19:48;;;;;;;9.18;2.47;;;;;;;19.98;100.00;99548.75;5028797;28;20488;-49
2021/09/14 14:22:51;;;;;;;6.72;2.53;;;;;;;20.00;100.00;99546.91;5016811;28;20045;-48
2021/09/14 14:26:22;;;;;;;5.45;2.92;;;;;;;19.97;100.00;99542.34;5021014;28;20161;-48
2021/09/14 14:34:13;;;;;;;10.55;2.20;;;;;;;20.38;100.00;99536.00;5028986;28;20413;-50
2021/09/14 14:37:29;;;;;;;7.53;2.35;;;;;;;20.28;100.00;99532.16;5019801;28;20183;-48
2021/09/14 14:40:45;;;;;;;4.47;1.42;;;;;;;20.24;100.00;99529.69;5026843;28;20131;-48
2021/09/14 14:43:48;;;;;;;6.82;2.03;;;;;;;20.30;100.00;99523.88;5033345;28;20044;-48
2021/09/14 14:46:51;;;;;;;7.80;2.17;;;;;;;20.44;100.00;99516.84;5016014;28;20501;-48
2021/09/14 14:49:55;;;;;;;6.32;1.73;;;;;;;20.38;100.00;99525.47;5015139;28;20052;-48
2021/09/14 14:52:58;;;;;;;6.05;1.90;;;;;;;20.52;100.00;99529.00;5019227;28;20176;-49
2021/09/14 14:56:03;;;;;;;10.30;3.67;;;;;;;20.60;100.00;99524.16;5033128;28;20114;-56
2021/09/14 14:59:14;;;;;;;7.95;1.95;;;;;;;20.63;100.00;99519.47;5010477;28;20064;-56
2021/09/14 15:02:19;;;;;;;8.40;1.67;;;;;;;20.66;100.00;99521.94;5013295;28;20032;-56
2021/09/14 15:05:22;;;;;;;6.07;1.50;;;;;;;20.56;100.00;99515.25;5014405;28;20067;-56
2021/09/14 15:08:26;;;;;;;7.82;2.22;;;;;;;20.62;100.00;99513.03;5010332;28;20037;-57
2021/09/14 15:11:31;;;;;;;7.25;2.08;;;;;;;20.69;100.00;99520.84;5010966;28;20407;-57
2021/09/14 15:14:34;;;;;;;5.15;2.13;;;;;;;20.97;100.00;99508.78;5005795;28;20448;-57
2021/09/14 15:17:37;;;;;;;4.38;1.33;;;;;;;21.38;100.00;99510.75;5008329;28;20060;-49
2021/09/14 15:20:40;;;;;;;5.90;1.30;;;;;;;21.36;100.00;99504.88;5007603;28;20041;-57
2021/09/14 15:23:44;;;;;;;3.83;1.10;;;;;;;21.39;100.00;99509.44;5017454;28;20051;-57
2021/09/14 15:26:56;;;;;;;16.83;1.50;;;;;;;21.37;100.00;99512.06;5034196;28;20075;-57
2021/09/14 15:30:07;;;;;;;6.75;1.70;;;;;;;21.38;100.00;99510.75;5035038;28;20509;-57
2021/09/14 15:33:24;;;;;;;4.95;1.30;;;;;;;21.23;100.00;99516.31;5017144;28;20059;-56
2021/09/14 15:36:36;;;;;;;3.78;0.70;;;;;;;21.17;100.00;99515.72;5023757;28;20551;-54
2021/09/14 15:39:48;;;;;;;10.40;1.60;;;;;;;21.21;100.00;99513.28;5033715;28;20095;-55
2021/09/14 15:43:09;;;;;;;9.45;2.47;;;;;;;21.26;100.00;99521.66;5033854;28;20098;-55
2021/09/14 15:46:26;;;;;;;6.75;1.67;;;;;;;21.36;100.00;99524.72;5017877;28;20697;-56
2021/09/14 15:50:07;;;;;;;3.38;1.15;;;;;;;21.44;100.00;99526.25;5046065;28;20051;-56
2021/09/14 15:53:13;;;;;;;4.18;2.00;;;;;;;21.28;100.00;99530.34;5039087;28;20492;-56
2021/09/14 15:56:17;;;;;;;3.90;1.42;;;;;;;21.22;100.00;99521.25;5041134;28;20436;-57
2021/09/14 16:09:19;;;;;;;3.70;1.23;;;;;;;20.94;100.00;99519.13;5001660;28;20061;-56
2021/09/14 16:12:51;;;;;;;5.97;1.83;;;;;;;20.97;100.00;99523.69;5011218;28;20191;-56
2021/09/14 16:16:26;;;;;;;3.80;0.73;;;;;;;20.94;100.00;99516.31;4996780;28;20060;-55
2021/09/14 16:39:29;;;;;;;5.10;1.50;;;;;;;20.93;100.00;99509.13;5042827;28;20771;-49
2021/09/14 16:47:12;;;;;;;6.72;1.55;;;;;;;20.75;100.00;99507.28;5059857;28;20526;-49